Tiempo atmosférico en la estación meteorológica de Bossòst, Lleida (725 m.)



Fecha
DESCASC
Temp. máxima en grados centígrados (hora)
DESCASC
Temp. mínima en grados centígrados (hora)
DESCASC
Temp. media en grados centígrados
DESCASC
Racha de viento máxima en m/sg (hora)
DESCASC
Velocidad máxima media en intervalos de 10 minutos(hora)
DESCASC
Precipitaciones diarias en mm
DESCASC
Precipitaciones de 00:00 a 06:00 en mm
DESCASC
Precipitaciones de 06:00 a 12:00 en mm
DESCASC
Precipitaciones de 12:00 a 18:00 en mm
DESCASC
Precipitaciones de 18:00 a 24:00 en mm
DESCASC
18-01-2018 12.4 (14:50) -2.5 (07:50) 4.9 5.83 (00:30) 4.72 (00:30) 0 0 0 0 0
17-01-2018 9.1 (15:00) -0.7 (23:59) 4.2 11.11 (13:20) 6.94 (13:20) 0 0 0 0 0
16-01-2018 12.6 (16:00) 0.5 (07:30) 6.6 6.67 (23:00) 4.17 (04:10) 0 0 0 0 0
15-01-2018 7.6 (14:20) -1.5 (07:50) 3 5 (19:30) 3.61 (04:00) 0 0 0 0 0
14-01-2018 4.5 (16:50) 0.6 (00:00) 2.6 4.44 (02:30) 2.22 (02:30) 1.8 0.8 0.2 0.6 0.2
13-01-2018 11.2 (14:50) 0.6 (00:00) 5.9 10 (16:20) 5.28 (16:20) 0 0 0 0 0
12-01-2018 8.4 (14:40) -1 (-00:0) 3.7 7.22 (10:10) 4.72 (10:10) 0 0 0 0 0
11-01-2018 4.9 (13:20) -0.8 (-00:0) 2.1 4.72 (16:00) 2.22 (01:10) 1 0 0 1 0
10-01-2018 10.7 (14:40) 0.1 (00:00) 5.4 5.83 (04:30) 3.89 (04:30) 2.4 0 0 0 2.4
09-01-2018 11.6 (14:20) -2.4 (-00:0) 4.6 13.06 (15:10) 7.78 (15:10) 0 0 0 0 0
08-01-2018 7.9 (14:20) -1.5 (-00:0) 3.2 6.67 (10:20) 4.44 (10:10) 0 0 0 0 0
07-01-2018 8.9 (14:20) 1 (00:00) 4.9 8.89 (14:40) 5.28 (06:50) 15.6 12.4 1 0.6 1.6
06-01-2018 6 (02:20) 3.1 (00:00) 4.5 3.61 (05:40) 2.22 (15:00) 2.2 0.2 0.4 0 1.6
05-01-2018 14.2 (14:20) 1.2 (00:00) 7.7 6.67 (05:40) 3.89 (01:20) 0 0 0 0 0
04-01-2018 14.4 (13:10) 5.1 (23:59) 9.7 8.06 (22:40) 5.56 (23:10) 0 0 0 0 0
03-01-2018 15.9 (13:50) 5.4 (00:00) 10.6 9.17 (14:00) 5.83 (07:00) 0.4 0 0.4 0 0
02-01-2018 7.8 (16:40) 3.3 (00:00) 5.6 7.5 (13:20) 4.72 (09:20) 21.8 0.6 3.4 12.4 5.4
01-01-2018 11 (14:40) 0.6 (00:00) 5.8 18.61 (20:10) 8.06 (20:10) 7 0.8 0 1.8 4.4
31-12-2017 17.7 (13:50) -0.9 (-00:0) 8.4 9.44 (12:00) 6.39 (11:30) 1.2 0 0 0 1.2
30-12-2017 10.4 (14:20) 1.3 (00:00) 5.8 8.06 (06:00) 5.83 (02:40) 0 0 0 0 0
29-12-2017 4.4 (16:00) 0.5 (00:00) 2.5 9.72 (12:10) 5.56 (10:00) 8.6 1 4.4 3.2 0
28-12-2017 1.2 (11:50) -0.4 (00:00) 0.4 2.22 (20:50) 1.11 (14:30) 17.8 2 3.8 5.2 6.8
27-12-2017 8.5 (01:00) -0.6 (-00:0) 3.9 18.61 (16:10) 7.22 (16:10) 19.2 1.2 8.8 4.8 4.4
26-12-2017 8.2 (23:59) 2.5 (00:00) 5.3 12.78 (21:20) 7.5 (22:00) 0.4 0 0.4 0 0
25-12-2017 15.2 (14:00) -0.8 (-00:0) 7.2 8.89 (22:00) 5.83 (17:10) 0 0 0 0 0
24-12-2017 11.7 (14:10) -1.8 (-00:0) 4.9 5.83 (19:50) 4.17 (20:50) 0 0 0 0 0
23-12-2017 9.4 (14:40) -0.5 (-00:0) 4.4 5.56 (08:30) 4.17 (09:30) 0 0 0 0 0
22-12-2017 5.9 (16:00) -1.4 (-00:0) 2.3 4.17 (16:20) 2.22 (13:10) 0 0 0 0 0

Gráficas

Temp. máximas Temp. mínimas Temp. medias Precipitaciones Rachas de viento máximas Velocidades máximas media en intervalos de 10 minutos

Datos horarios

Fecha y hora oficial Temperatura (ºC) Velocidad del viento (km/h) Dirección del viento Racha (km/h) Dirección de racha Precipitación (mm) Presión (hPa) Tendencia (hPa) Humedad (%)
2018-01-20 23:00:00 7.8 2 Nordeste 6 Norte 0.8 -- -- 100
2018-01-20 22:00:00 7.9 3 Este 8 Nordeste 3.2 -- -- 100
2018-01-20 21:00:00 7.6 3 Nordeste 7 Norte 3.6 -- -- 100
2018-01-20 20:00:00 7.7 3 Este 6 Noroeste 3.4 -- -- 100
2018-01-20 19:00:00 7.2 3 Este 6 Este 3.6 -- -- 100
2018-01-20 18:00:00 7 5 Oeste 11 Oeste 2 -- -- 99
2018-01-20 17:00:00 6.6 5 Nordeste 9 Norte 2.4 -- -- 99
2018-01-20 16:00:00 6.4 3 Sudoeste 7 Sudeste 0.8 -- -- 97
2018-01-20 15:00:00 5.8 3 Sur 8 Sudeste 1.2 -- -- 97
2018-01-20 14:00:00 5.4 2 Noroeste 7 Sudeste 0.4 -- -- 94
2018-01-20 13:00:00 5.6 4 Nordeste 15 Este 0 -- -- 82
2018-01-20 12:00:00 4.6 3 Nordeste 8 Nordeste 0 -- -- 87
2018-01-20 11:00:00 3.8 4 Nordeste 9 Nordeste 0 -- -- 92
2018-01-20 10:00:00 3.7 6 Sur 23 Sudoeste 0 -- -- 83
2018-01-20 09:00:00 1.6 2 Sur 9 Sudoeste 0 -- -- 94
2018-01-20 08:00:00 1.8 5 Sur 18 Sudoeste 0 -- -- 92
2018-01-20 07:00:00 0.7 9 Sur 26 Sudoeste 0 -- -- 95
2018-01-20 06:00:00 0.3 13 Sudoeste 18 Sudoeste 0 -- -- 98
2018-01-20 05:00:00 0.4 5 Sur 9 Sur 0 -- -- 98
2018-01-20 04:00:00 0.8 4 Sur 10 Sur 0 -- -- 98
2018-01-20 03:00:00 2.1 4 Sur 10 Sur 0 -- -- 95
2018-01-20 02:00:00 4.1 3 Sur 14 Nordeste 0.2 -- -- 93
2018-01-20 01:00:00 3.9 4 Norte 6 Norte 0.2 -- -- 98
2018-01-20 00:00:00 3.7 0 Calma 3 Sudeste 0.2 -- -- 96
2018-01-19 23:00:00 4 0 Calma 4 Oeste 0 -- -- 92
2018-01-19 22:00:00 4 2 Sur 6 Sudeste 0 -- -- 88
2018-01-19 21:00:00 3.7 3 Nordeste 6 Sur 0 -- -- 88
2018-01-19 20:00:00 4.1 0 Calma 5 Noroeste 0 -- -- 86
2018-01-19 19:00:00 5.4 3 Norte 14 Norte 0 -- -- 79
2018-01-19 18:00:00 7.3 10 Norte 22 Nordeste 0 -- -- 71
2018-01-19 17:00:00 7.9 5 Norte 11 Noroeste 0 -- -- 72
2018-01-19 16:00:00 7.8 4 Sudeste 10 Nordeste 0 -- -- 78
2018-01-19 15:00:00 7.6 3 Nordeste 25 Norte 0 -- -- 84
2018-01-19 14:00:00 10.5 3 Noroeste 10 Sudeste 0 -- -- 68
2018-01-19 13:00:00 8.1 4 Nordeste 12 Nordeste 0 -- -- 77
2018-01-19 12:00:00 4.2 3 Nordeste 8 Norte 0 -- -- 82
2018-01-19 11:00:00 0.3 2 Sudeste 6 Sur 0 -- -- 94
2018-01-19 10:00:00 0.3 0 Calma 6 Sudeste 0 -- -- 92
2018-01-19 09:00:00 1.9 4 Sur 27 Sudoeste 0 -- -- 85
2018-01-19 08:00:00 2 17 Sudoeste 31 Sudoeste 0 -- -- 83
2018-01-19 07:00:00 -0.1 8 Sur 22 Sudoeste 0 -- -- 94
2018-01-19 06:00:00 -1.2 5 Sudoeste 10 Sudoeste 0 -- -- 95
2018-01-19 05:00:00 0.7 2 Este 19 Sudoeste 0 -- -- 88
2018-01-19 04:00:00 1.1 11 Sudoeste 24 Sudoeste 0 -- -- 87
2018-01-19 03:00:00 1 12 Sudoeste 19 Sudoeste 0 -- -- 88
2018-01-19 02:00:00 1.7 11 Sudoeste 22 Sudoeste 0 -- -- 86
2018-01-19 01:00:00 1.4 12 Sudoeste 16 Sudoeste 0 -- -- 88
2018-01-19 00:00:00 1 6 Sur 14 Sudoeste 0 -- -- 92
2018-01-18 23:00:00 0.8 5 Sur 10 Sur 0 -- -- 94
2018-01-18 22:00:00 1.1 3 Sur 12 Sudoeste 0 -- -- 91
2018-01-18 21:00:00 2.5 9 Sur 16 Sudoeste 0 -- -- 87
2018-01-18 20:00:00 3 9 Sur 13 Sur 0 -- -- 86
2018-01-18 19:00:00 3.9 8 Sudoeste 14 Sur 0 -- -- 85
2018-01-18 18:00:00 4.6 8 Sudoeste 14 Sudoeste 0 -- -- 83
2018-01-18 17:00:00 5.7 3 Sur 9 Sudoeste 0 -- -- 79
2018-01-18 16:00:00 7.1 2 Sudoeste 6 Norte 0 -- -- 71
2018-01-18 15:00:00 12.4 4 Norte 9 Nordeste 0 -- -- 47
2018-01-18 14:00:00 11.2 3 Nordeste 6 Nordeste 0 -- -- 47
2018-01-18 13:00:00 8.5 2 Norte 6 Nordeste 0 -- -- 59
2018-01-18 12:00:00 2.6 0 Calma 18 Sur 0 -- -- 80
2018-01-18 11:00:00 -0.5 0 Calma 11 Oeste 0 -- -- 87
2018-01-18 10:00:00 -1.5 0 Calma 9 Sudoeste 0 -- -- 87
2018-01-18 09:00:00 -2 6 Sur 15 Oeste 0 -- -- 88
2018-01-18 08:00:00 -2.5 5 Sur 9 Sur 0 -- -- 91
2018-01-18 07:00:00 -1.9 0 Calma 11 Sudoeste 0 -- -- 89
2018-01-18 06:00:00 -1.6 6 Sudoeste 14 Oeste 0 -- -- 89
2018-01-18 05:00:00 -1.6 4 Sur 9 Sudoeste 0 -- -- 93
2018-01-18 04:00:00 -1.7 3 Sur 10 Sur 0 -- -- 95
2018-01-18 03:00:00 -2.1 2 Sur 8 Sudoeste 0 -- -- 95
2018-01-18 02:00:00 -1.2 0 Calma 14 Sudoeste 0 -- -- 92
2018-01-18 01:00:00 -0.3 10 Sudoeste 21 Sudoeste 0 -- -- 89
2018-01-18 00:00:00 -0.7 5 Sudoeste 9 Sudoeste 0 -- -- 93
2018-01-17 23:00:00 0.2 6 Sur 13 Sudoeste 0 -- -- 91
2018-01-17 22:00:00 1 8 Sudoeste 15 Sur 0 -- -- 90
2018-01-17 21:00:00 1.8 8 Sudoeste 13 Sudoeste 0 -- -- 88
2018-01-17 20:00:00 2.3 0 Calma 5 Sur 0 -- -- 89
2018-01-17 19:00:00 3.4 2 Sur 5 Sudoeste 0 -- -- 84
2018-01-17 18:00:00 4.3 2 Sur 13 Sur 0 -- -- 80
2018-01-17 17:00:00 6.6 3 Nordeste 17 Nordeste 0 -- -- 64
2018-01-17 16:00:00 7.5 6 Nordeste 28 Norte 0 -- -- 58
2018-01-17 15:00:00 9.1 12 Norte 23 Nordeste 0 -- -- 53
2018-01-17 14:00:00 6.3 15 Norte 40 Norte 0 -- -- 75
2018-01-17 13:00:00 7.2 18 Norte 38 Norte 0 -- -- 73
2018-01-17 12:00:00 7.6 22 Norte 37 Norte 0 -- -- 67
2018-01-17 11:00:00 6.9 13 Norte 24 Norte 0 -- -- 66
2018-01-17 10:00:00 6.3 15 Norte 36 Norte 0 -- -- 76
2018-01-17 09:00:00 5.1 3 Sudeste 30 Norte 0 -- -- 80
2018-01-17 08:00:00 6.5 20 Norte 35 Norte 0 -- -- 77
2018-01-17 07:00:00 6.5 16 Norte 33 Norte 0 -- -- 80
2018-01-17 06:00:00 7.4 16 Norte 32 Norte 0 -- -- 84
2018-01-17 05:00:00 7.4 14 Norte 34 Norte 0 -- -- 85
2018-01-17 04:00:00 3.6 2 Oeste 11 Sudoeste 0 -- -- 96
2018-01-17 03:00:00 3.3 4 Sur 9 Oeste 0 -- -- 96
2018-01-17 02:00:00 3.7 4 Sudoeste 8 Sudoeste 0 -- -- 93
2018-01-17 01:00:00 4.5 2 Sudoeste 13 Sudoeste 0 -- -- 91
2018-01-17 00:00:00 5 6 Sudoeste 19 Sudoeste 0 -- -- 89
2018-01-16 23:00:00 5.2 13 Sudoeste 24 Oeste 0 -- -- 89
2018-01-16 22:00:00 4.9 7 Sudoeste 22 Sudoeste 0 -- -- 89
2018-01-16 21:00:00 4.5 10 Sudoeste 17 Sudoeste 0 -- -- 92
2018-01-16 20:00:00 4.5 3 Sudoeste 12 Sudoeste 0 -- -- 92
2018-01-16 19:00:00 6.5 7 Sur 15 Sudoeste 0 -- -- 87
2018-01-16 18:00:00 8.1 2 Sur 10 Sudoeste 0 -- -- 82
2018-01-16 17:00:00 10.7 5 Sur 9 Sur 0 -- -- 78
2018-01-16 16:00:00 12.6 2 Sudoeste 5 Sudoeste 0 -- -- 67
2018-01-16 15:00:00 11.2 0 Calma 6 Noroeste 0 -- -- 69
2018-01-16 14:00:00 9.6 2 Nordeste 6 Nordeste 0 -- -- 68
2018-01-16 13:00:00 8.7 4 Norte 9 Nordeste 0 -- -- 73
2018-01-16 12:00:00 7.2 3 Nordeste 12 Oeste 0 -- -- 76
2018-01-16 11:00:00 5.4 4 Sudoeste 8 Norte 0 -- -- 83
2018-01-16 10:00:00 4.6 5 Sur 20 Sudoeste 0 -- -- 84
2018-01-16 09:00:00 2.5 8 Sur 19 Sudoeste 0 -- -- 92
2018-01-16 08:00:00 0.7 6 Sudoeste 13 Sudoeste 0 -- -- 97
2018-01-16 07:00:00 1.4 3 Sur 15 Sudoeste 0 -- -- 93
2018-01-16 06:00:00 1.8 9 Sudoeste 16 Sudoeste 0 -- -- 93
2018-01-16 05:00:00 1.9 3 Nordeste 21 Sudoeste 0 -- -- 90
2018-01-16 04:00:00 2.2 12 Sudoeste 21 Sudoeste 0 -- -- 89
2018-01-16 03:00:00 2.6 7 Sur 15 Sudoeste 0 -- -- 87
2018-01-16 02:00:00 3.1 11 Sudoeste 17 Sudoeste 0 -- -- 85
2018-01-16 01:00:00 3.8 7 Sudoeste 17 Sudoeste 0 -- -- 83
2018-01-16 00:00:00 4.2 4 Sudoeste 9 Sudoeste 0 -- -- 85
2018-01-15 23:00:00 4 0 Calma 7 Sur 0 -- -- 88
2018-01-15 22:00:00 4.8 4 Nordeste 11 Sur 0 -- -- 83
2018-01-15 21:00:00 5 3 Sudoeste 10 Sur 0 -- -- 81
2018-01-15 20:00:00 5 6 Sur 18 Sudoeste 0 -- -- 80
2018-01-15 19:00:00 4.8 2 Sur 7 Sudeste 0 -- -- 86
2018-01-15 18:00:00 5.2 0 Calma 5 Sur 0 -- -- 82
2018-01-15 17:00:00 6.9 3 Sur 5 Sudoeste 0 -- -- 74
2018-01-15 16:00:00 7.4 2 Noroeste 14 Nordeste 0 -- -- 65
2018-01-15 15:00:00 7.3 7 Norte 17 Norte 0 -- -- 64
2018-01-15 14:00:00 7.2 7 Norte 12 Norte 0 -- -- 64
2018-01-15 13:00:00 6.6 6 Este 12 Oeste 0 -- -- 68
2018-01-15 12:00:00 1.6 0 Calma 4 Sudoeste 0 -- -- 99
2018-01-15 11:00:00 -0.7 0 Calma 5 Oeste 0 -- -- 98
2018-01-15 10:00:00 -0.8 0 Calma 15 Sur 0 -- -- 96
2018-01-15 09:00:00 -0.8 10 Sur 14 Sudoeste 0 -- -- 99
2018-01-15 08:00:00 -1.5 2 Sudeste 5 Sudoeste 0 -- -- 99
2018-01-15 07:00:00 -1.2 0 Calma 6 Sudoeste 0 -- -- 98
2018-01-15 06:00:00 -0.5 2 Sudoeste 6 Sudoeste 0 -- -- 98
2018-01-15 05:00:00 0.6 8 Sur 15 Sudoeste 0 -- -- 97
2018-01-15 04:00:00 2.1 13 Sudoeste 17 Sudoeste 0 -- -- 94
2018-01-15 03:00:00 2.2 10 Sudoeste 15 Sudoeste 0 -- -- 96
2018-01-15 02:00:00 2.1 0 Calma 9 Sudoeste 0 -- -- 98
2018-01-15 01:00:00 2.1 6 Sudoeste 11 Sudoeste 0 -- -- 98
2018-01-15 00:00:00 2.6 4 Sur 6 Sur 0 -- -- 99
2018-01-14 23:00:00 2.7 3 Nordeste 7 Sur 0 -- -- 99
2018-01-14 22:00:00 2.6 0 Calma 8 Sudoeste 0 -- -- 98
2018-01-14 21:00:00 2.7 5 Sudoeste 7 Sur 0 -- -- 98
2018-01-14 20:00:00 2.9 4 Sur 5 Sur 0.2 -- -- 99
2018-01-14 19:00:00 2.5 0 Calma 5 Sudeste 0 -- -- 97
2018-01-14 18:00:00 3.5 0 Calma 4 Sudoeste 0 -- -- 93
2018-01-14 17:00:00 4.5 3 Sudoeste 5 Sudoeste 0 -- -- 90
2018-01-14 16:00:00 4.3 0 Calma 4 Norte 0 -- -- 85
2018-01-14 15:00:00 4 0 Calma 5 Norte 0.2 -- -- 90
2018-01-14 14:00:00 3.4 0 Calma 8 Norte 0 -- -- 91
2018-01-14 13:00:00 3.2 4 Nordeste 10 Norte 0.4 -- -- 94
2018-01-14 12:00:00 3.2 3 Norte 5 Este 0 -- -- 93
2018-01-14 11:00:00 2.6 0 Calma 4 Nordeste 0.2 -- -- 95
2018-01-14 10:00:00 1.6 0 Calma 4 Nordeste 0 -- -- 99
2018-01-14 09:00:00 0.7 0 Calma 3 Sur 0 -- -- 99
2018-01-14 08:00:00 0.8 0 Calma 4 Nordeste 0 -- -- 98
2018-01-14 07:00:00 1.1 0 Calma 5 Oeste 0 -- -- 97
2018-01-14 06:00:00 1.1 0 Calma 5 Sudoeste 0.2 -- -- 97
2018-01-14 05:00:00 1.3 2 Sudoeste 4 Sur 0.2 -- -- 96
2018-01-14 04:00:00 1.9 0 Calma 5 Este 0.4 -- -- 94
2018-01-14 03:00:00 2.4 5 Sur 16 Sudoeste 0 -- -- 88
2018-01-14 02:00:00 1.5 0 Calma 5 Sur 0 -- -- 84
2018-01-14 01:00:00 1.3 2 Sudoeste 6 Sudoeste 0 -- -- 83
2018-01-14 00:00:00 1.8 0 Calma 6 Sudeste 0 -- -- 79
2018-01-13 23:00:00 1.7 2 Nordeste 7 Nordeste 0 -- -- 81
2018-01-13 22:00:00 1.6 2 Sur 7 Oeste 0 -- -- 82
2018-01-13 21:00:00 1.7 3 Sudoeste 6 Sudoeste 0 -- -- 82
2018-01-13 20:00:00 3 0 Calma 5 Oeste 0 -- -- 76
2018-01-13 19:00:00 4.8 2 Sur 10 Nordeste 0 -- -- 64
2018-01-13 18:00:00 7.9 4 Sur 24 Sudoeste 0 -- -- 42
2018-01-13 17:00:00 9.9 8 Sur 36 Sudoeste 0 -- -- 31
2018-01-13 16:00:00 10.8 12 Sudoeste 30 Sudoeste 0 -- -- 27
2018-01-13 15:00:00 -- 15 Sudoeste 32 Sudoeste 0 -- -- --
2018-01-13 14:00:00 8.7 3 Noroeste 6 Norte 0 -- -- 59
2018-01-13 13:00:00 8.9 3 Norte 9 Nordeste 0 -- -- 46
2018-01-13 12:00:00 7.5 4 Nordeste 8 Norte 0 -- -- 54
2018-01-13 11:00:00 5.3 0 Calma 13 Sudeste 0 -- -- 58
2018-01-13 10:00:00 5.8 6 Sur 25 Sur 0 -- -- 38
2018-01-13 09:00:00 4.9 8 Sur 21 Sur 0 -- -- 41
2018-01-13 08:00:00 5 10 Sudoeste 24 Sudoeste 0 -- -- 42
2018-01-13 07:00:00 4.5 13 Sudoeste 28 Sudoeste 0 -- -- 42
2018-01-13 06:00:00 3.9 13 Sudoeste 31 Oeste 0 -- -- 44
2018-01-13 05:00:00 3.6 13 Sur 28 Sudoeste 0 -- -- 45
2018-01-13 04:00:00 1.9 9 Sudoeste 27 Sudoeste 0 -- -- 55
2018-01-13 03:00:00 1.7 10 Sudoeste 30 Oeste 0 -- -- 53
2018-01-13 02:00:00 1.1 9 Sudoeste 22 Sudoeste 0 -- -- 61
2018-01-13 01:00:00 0.7 10 Oeste 24 Sudoeste 0 -- -- 67
2018-01-13 00:00:00 0.8 10 Sudoeste 23 Sudoeste 0 -- -- 68
2018-01-12 23:00:00 0 10 Sudoeste 19 Sudoeste 0 -- -- 77
2018-01-12 22:00:00 0.6 8 Oeste 24 Sudoeste 0 -- -- 77
2018-01-12 21:00:00 0.1 9 Sudoeste 16 Sudoeste 0 -- -- 87
2018-01-12 20:00:00 0.3 11 Sudoeste 18 Sudoeste 0 -- -- 90
2018-01-12 19:00:00 1 8 Sudoeste 17 Sur 0 -- -- 88
2018-01-12 18:00:00 2.3 10 Sudoeste 15 Sudoeste 0 -- -- 85
2018-01-12 17:00:00 4.9 3 Sur 15 Norte 0 -- -- 78
2018-01-12 16:00:00 6.5 7 Nordeste 15 Norte 0 -- -- 63
2018-01-12 15:00:00 8 3 Nordeste 11 Sudoeste 0 -- -- 58
2018-01-12 14:00:00 7.1 5 Oeste 12 Oeste 0 -- -- 63
2018-01-12 13:00:00 5.1 3 Nordeste 8 Nordeste 0 -- -- 69
2018-01-12 12:00:00 2 3 Nordeste 14 Oeste 0 -- -- 84
2018-01-12 11:00:00 1 8 Sudoeste 26 Sudoeste 0 -- -- 81
2018-01-12 10:00:00 0.4 15 Sudoeste 23 Sudoeste 0 -- -- 84
2018-01-12 09:00:00 0.1 15 Sudoeste 23 Sudoeste 0 -- -- 87
2018-01-12 08:00:00 -0.5 0 Calma 14 Sur 0 -- -- 94
2018-01-12 07:00:00 0.3 0 Calma 13 Sudoeste 0 -- -- 94
2018-01-12 06:00:00 0.4 3 Este 11 Sudoeste 0 -- -- 99
2018-01-12 05:00:00 0.2 2 Norte 13 Sudoeste 0 -- -- 100
2018-01-12 04:00:00 -0.2 0 Calma 4 Sur 0 -- -- 100
2018-01-12 03:00:00 -0.9 0 Calma 12 Sudoeste 0 -- -- 97
2018-01-12 02:00:00 0 5 Sudoeste 13 Sudoeste 0 -- -- 98
2018-01-12 01:00:00 1 5 Sudoeste 10 Sudoeste 0 -- -- 98
2018-01-12 00:00:00 2 3 Sur 6 Sudoeste 0 -- -- 100
2018-01-11 23:00:00 1.7 0 Calma 4 Sudoeste 0 -- -- 99
2018-01-11 22:00:00 1.9 2 Sudoeste 5 Sudoeste 0 -- -- 99
2018-01-11 21:00:00 1.9 0 Calma 5 Sudoeste 0 -- -- 99
2018-01-11 20:00:00 2 4 Sudoeste 6 Sudoeste 0 -- -- 97
2018-01-11 19:00:00 2.6 0 Calma 4 Oeste 0 -- -- 97
2018-01-11 18:00:00 2.9 2 Sudeste 9 Nordeste 0.6 -- -- 93
2018-01-11 17:00:00 3.4 0 Calma 7 Sur 0 -- -- 93
2018-01-11 16:00:00 3.4 6 Norte 17 Nordeste 0.4 -- -- 90
2018-01-11 15:00:00 4.4 7 Norte 13 Nordeste 0 -- -- 79
2018-01-11 14:00:00 4.8 7 Nordeste 14 Nordeste 0 -- -- 77
2018-01-11 13:00:00 4.4 0 Calma 6 Noroeste 0 -- -- 80
2018-01-11 12:00:00 3.1 2 Noroeste 6 Norte 0 -- -- 90
2018-01-11 11:00:00 1.7 3 Norte 9 Norte 0 -- -- 99
2018-01-11 10:00:00 0.4 2 Sudoeste 9 Oeste 0 -- -- 100
2018-01-11 09:00:00 0.1 2 Sur 6 Sur 0 -- -- 100
2018-01-11 08:00:00 -0.5 0 Calma 8 Oeste 0 -- -- 100
2018-01-11 07:00:00 -0.6 2 Sur 5 Sudoeste 0 -- -- 98
2018-01-11 06:00:00 0.2 0 Calma 7 Sudoeste 0 -- -- 99
2018-01-11 05:00:00 0.9 2 Sudoeste 7 Norte 0 -- -- 98
2018-01-11 04:00:00 1.3 2 Sudoeste 6 Sur 0 -- -- 97
2018-01-11 03:00:00 2 0 Calma 4 Oeste 0 -- -- 97
2018-01-11 02:00:00 2.3 2 Sur 14 Sur 0 -- -- 96
2018-01-11 01:00:00 2.6 4 Sur 16 Nordeste 0 -- -- 95
2018-01-11 00:00:00 3.2 8 Nordeste 16 Nordeste 0.2 -- -- 90
2018-01-10 23:00:00 3.2 6 Nordeste 17 Nordeste 2.2 -- -- 94
2018-01-10 22:00:00 2.1 3 Nordeste 9 Sudoeste 0 -- -- 94
2018-01-10 21:00:00 1.6 4 Sudoeste 6 Sur 0 -- -- 91
2018-01-10 20:00:00 1.7 2 Sudoeste 8 Sudoeste 0 -- -- 89
2018-01-10 19:00:00 2.4 3 Sudoeste 13 Sudoeste 0 -- -- 84
2018-01-10 18:00:00 2.9 8 Sudoeste 16 Sudoeste 0 -- -- 84
2018-01-10 17:00:00 3.3 6 Sudoeste 10 Sudoeste 0 -- -- 82
2018-01-10 16:00:00 4.5 2 Sur 9 Sudoeste 0 -- -- 78
2018-01-10 15:00:00 9.4 7 Sudoeste 13 Sudoeste 0 -- -- 58
2018-01-10 14:00:00 9.7 3 Sur 6 Nordeste 0 -- -- 52
2018-01-10 13:00:00 8.5 3 Nordeste 4 Nordeste 0 -- -- 56
2018-01-10 12:00:00 2.5 2 Sudeste 6 Nordeste 0 -- -- 84
2018-01-10 11:00:00 0.4 0 Calma 6 Sudoeste 0 -- -- 86
2018-01-10 10:00:00 1.2 5 Sudoeste 19 Sudoeste 0 -- -- 81
2018-01-10 09:00:00 0.5 8 Sudoeste 17 Sudoeste 0 -- -- 84
2018-01-10 08:00:00 0.2 8 Sudoeste 13 Sudoeste 0 -- -- 87
2018-01-10 07:00:00 0.8 0 Calma 15 Sudoeste 0 -- -- 84
2018-01-10 06:00:00 1.6 12 Sudoeste 20 Sudoeste 0 -- -- 80
2018-01-10 05:00:00 3 13 Sudoeste 21 Sudoeste 0 -- -- 72
2018-01-10 04:00:00 2.5 3 Sur 14 Sudoeste 0 -- -- 77
2018-01-10 03:00:00 2.8 11 Sudoeste 18 Sudoeste 0 -- -- 75
2018-01-10 02:00:00 3.5 10 Sudoeste 16 Sudoeste 0 -- -- 72
2018-01-10 01:00:00 3.6 3 Sudoeste 5 Sudoeste 0 -- -- 75
2018-01-10 00:00:00 4.7 0 Calma 8 Oeste 0 -- -- 71
2018-01-09 23:00:00 6.5 11 Sudoeste 23 Sur 0 -- -- 50
2018-01-09 22:00:00 7.4 14 Sudoeste 33 Sur 0 -- -- 43
2018-01-09 21:00:00 7.7 19 Sudoeste 39 Sudoeste 0 -- -- 38
2018-01-09 20:00:00 7.7 16 Sudoeste 36 Sudoeste 0 -- -- 37
2018-01-09 19:00:00 8.1 23 Sudoeste 39 Sudoeste 0 -- -- 35
2018-01-09 18:00:00 8.5 17 Sudoeste 37 Sudoeste 0 -- -- 33
2018-01-09 17:00:00 9.3 21 Sudoeste 40 Oeste 0 -- -- 33
2018-01-09 16:00:00 10.1 24 Sudoeste 47 Sudoeste 0 -- -- 31
2018-01-09 15:00:00 10.6 22 Sudoeste 40 Sudoeste 0 -- -- 31
2018-01-09 14:00:00 11 19 Sudoeste 35 Sudoeste 0 -- -- 29
2018-01-09 13:00:00 7.7 5 Sudeste 14 Oeste 0 -- -- 39
2018-01-09 12:00:00 1.6 3 Nordeste 8 Nordeste 0 -- -- 76
2018-01-09 11:00:00 -1.6 0 Calma 6 Noroeste 0 -- -- 87
2018-01-09 10:00:00 -2 3 Norte 11 Oeste 0 -- -- 88
2018-01-09 09:00:00 -2.3 3 Sudoeste 6 Sur 0 -- -- 86
2018-01-09 08:00:00 -1.4 2 Oeste 9 Sur 0 -- -- 81
2018-01-09 07:00:00 -0.4 4 Sur 19 Sudoeste 0 -- -- 76
2018-01-09 06:00:00 0.6 8 Sur 22 Sudoeste 0 -- -- 72
2018-01-09 05:00:00 0.2 11 Sudoeste 17 Sudoeste 0 -- -- 75
2018-01-09 04:00:00 -0.2 8 Sur 20 Sudoeste 0 -- -- 84
2018-01-09 03:00:00 0 7 Sur 19 Sudoeste 0 -- -- 87
2018-01-09 02:00:00 0.7 8 Sudoeste 18 Sudoeste 0 -- -- 86
2018-01-09 01:00:00 0.5 10 Sudoeste 16 Sudoeste 0 -- -- 91
2018-01-09 00:00:00 0.8 4 Sur 18 Sudoeste 0 -- -- 89
2018-01-08 23:00:00 1.1 14 Sudoeste 21 Sudoeste 0 -- -- 87
2018-01-08 22:00:00 0.7 7 Sudoeste 17 Sudoeste 0 -- -- 89
2018-01-08 21:00:00 0.9 10 Sudoeste 17 Sudoeste 0 -- -- 90
2018-01-08 20:00:00 2.1 10 Sudoeste 20 Sudoeste 0 -- -- 84
2018-01-08 19:00:00 3.4 15 Sudoeste 21 Sudoeste 0 -- -- 80
2018-01-08 18:00:00 4.2 11 Sudoeste 15 Sudoeste 0 -- -- 81
2018-01-08 17:00:00 5.7 10 Sudoeste 18 Sudoeste 0 -- -- 76
2018-01-08 16:00:00 6.6 10 Sudoeste 14 Sudoeste 0 -- -- 68
2018-01-08 15:00:00 7.9 6 Sudoeste 12 Sudoeste 0 -- -- 58
2018-01-08 14:00:00 7.7 5 Sudoeste 9 Sudoeste 0 -- -- 56
2018-01-08 13:00:00 5.1 2 Nordeste 8 Nordeste 0 -- -- 79
2018-01-08 12:00:00 2.1 5 Nordeste 17 Sudoeste 0 -- -- 86
2018-01-08 11:00:00 0.6 2 Norte 24 Sudoeste 0 -- -- 92
2018-01-08 10:00:00 0.3 15 Sudoeste 22 Sudoeste 0 -- -- 90
2018-01-08 09:00:00 -1.5 4 Sudoeste 8 Sudoeste 0 -- -- 98
2018-01-08 08:00:00 -0.9 0 Calma 15 Sudoeste 0 -- -- 97
2018-01-08 07:00:00 -0.4 4 Sudoeste 17 Sudeste 0 -- -- 96
2018-01-08 06:00:00 0.2 4 Sur 19 Sudoeste 0 -- -- 97
2018-01-08 05:00:00 0.2 8 Sudoeste 17 Sudoeste 0 -- -- 99
2018-01-08 04:00:00 0.4 3 Sur 6 Sur 0 -- -- 98
2018-01-08 03:00:00 1.4 2 Oeste 8 Sudoeste 0 -- -- 97
2018-01-08 02:00:00 2.6 3 Sudoeste 15 Oeste 0 -- -- 96
2018-01-08 01:00:00 3.1 4 Sudoeste 15 Sudoeste 0 -- -- 96
2018-01-08 00:00:00 3.7 5 Sur 23 Sudoeste 1 -- -- 93
2018-01-07 23:00:00 4 16 Sudoeste 27 Sudoeste 0 -- -- 91
2018-01-07 22:00:00 4.4 11 Sudoeste 15 Sudoeste 0.6 -- -- 93
2018-01-07 21:00:00 5 0 Calma 10 Nordeste 0 -- -- 91
2018-01-07 20:00:00 5.2 0 Calma 22 Sudoeste 0 -- -- 86
2018-01-07 19:00:00 5.6 15 Sudoeste 29 Sudoeste 0 -- -- 81
2018-01-07 18:00:00 5.4 14 Sudoeste 20 Sudoeste 0 -- -- 84
2018-01-07 17:00:00 6.8 6 Sur 22 Sudoeste 0 -- -- 75
2018-01-07 16:00:00 8.2 4 Sudoeste 22 Oeste 0 -- -- 65
2018-01-07 15:00:00 8.4 13 Oeste 32 Oeste 0 -- -- 73
2018-01-07 14:00:00 8.1 14 Sudoeste 30 Oeste 0.4 -- -- 76
2018-01-07 13:00:00 7.2 10 Sudoeste 20 Oeste 0.2 -- -- 88
2018-01-07 12:00:00 5.6 8 Sudoeste 17 Sudoeste 0 -- -- 96
2018-01-07 11:00:00 4.2 6 Nordeste 19 Sudoeste 0 -- -- 99
2018-01-07 10:00:00 2.6 2 Norte 8 Sudeste 0 -- -- 100
2018-01-07 09:00:00 2.4 3 Sur 17 Nordeste 0 -- -- 97
2018-01-07 08:00:00 3.8 13 Sur 20 Sudoeste 0.2 -- -- 100
2018-01-07 07:00:00 3 10 Sur 24 Sudoeste 0.8 -- -- 98
2018-01-07 06:00:00 2.3 4 Oeste 10 Este 2.6 -- -- 99
2018-01-07 05:00:00 2.5 8 Sudeste 20 Sur 0.8 -- -- 97
2018-01-07 04:00:00 1.7 3 Sur 7 Este 3.4 -- -- 98
2018-01-07 03:00:00 1.7 8 Nordeste 18 Sudoeste 0.6 -- -- 98
2018-01-07 02:00:00 1.5 6 Nordeste 21 Sudoeste 2.8 -- -- 97
2018-01-07 01:00:00 2.5 4 Sur 5 Sur 2.2 -- -- 97
2018-01-07 00:00:00 3.1 2 Sudeste 5 Sur 0.4 -- -- 98
2018-01-06 23:00:00 3.2 0 Calma 4 Nordeste 0.2 -- -- 98
2018-01-06 22:00:00 3.3 2 Norte 3 Oeste 0 -- -- 98
2018-01-06 21:00:00 3.4 0 Calma 4 Norte 0.6 -- -- 97
2018-01-06 20:00:00 3.6 2 Nordeste 5 Nordeste 0.2 -- -- 96
2018-01-06 19:00:00 3.8 0 Calma 6 Nordeste 0.2 -- -- 95
2018-01-06 18:00:00 4.1 3 Nordeste 8 Nordeste 0 -- -- 91
2018-01-06 17:00:00 4.4 3 Nordeste 10 Nordeste 0 -- -- 89
2018-01-06 16:00:00 4.6 6 Nordeste 13 Norte 0 -- -- 88
2018-01-06 15:00:00 4.8 8 Norte 13 Norte 0 -- -- 87
2018-01-06 14:00:00 4.6 5 Nordeste 10 Norte 0 -- -- 88
2018-01-06 13:00:00 4.4 4 Nordeste 12 Norte 0 -- -- 89
2018-01-06 12:00:00 4.1 4 Nordeste 13 Nordeste 0 -- -- 90
2018-01-06 11:00:00 4 0 Calma 9 Nordeste 0 -- -- 93
2018-01-06 10:00:00 4.1 3 Nordeste 9 Nordeste 0 -- -- 95
2018-01-06 09:00:00 4.1 2 Norte 4 Norte 0 -- -- 98
2018-01-06 08:00:00 4.3 2 Noroeste 5 Sudeste 0.4 -- -- 97
2018-01-06 07:00:00 4.7 0 Calma 11 Nordeste 0 -- -- 94
2018-01-06 06:00:00 5.3 4 Este 13 Nordeste 0.2 -- -- 93
2018-01-06 05:00:00 5.9 2 Sur 11 Nordeste 0 -- -- 97
2018-01-06 04:00:00 5.9 3 Norte 6 Norte 0 -- -- 97
2018-01-06 03:00:00 6 0 Calma 5 Norte 0 -- -- 97
2018-01-06 02:00:00 5.9 2 Sudeste 5 Sur 0 -- -- 98
2018-01-06 01:00:00 5.7 0 Calma 5 Noroeste 0 -- -- 97
2018-01-06 00:00:00 5.6 2 Sudeste 6 Sudoeste 0 -- -- 97
2018-01-05 23:00:00 5.3 3 Sur 7 Sudoeste 0 -- -- 96
2018-01-05 22:00:00 4.8 4 Oeste 8 Sudoeste 0 -- -- 95
2018-01-05 21:00:00 4.4 3 Sudoeste 6 Sudeste 0 -- -- 96
2018-01-05 20:00:00 3.5 0 Calma 8 Sudoeste 0 -- -- 95
2018-01-05 19:00:00 4.2 4 Sudoeste 10 Sudoeste 0 -- -- 93
2018-01-05 18:00:00 5.7 4 Sur 10 Sudoeste 0 -- -- 88
2018-01-05 17:00:00 7.2 5 Sur 17 Sudoeste 0 -- -- 85
2018-01-05 16:00:00 8.1 8 Sudoeste 14 Sudoeste 0 -- -- 81
2018-01-05 15:00:00 11.2 8 Sudoeste 11 Sudoeste 0 -- -- 68
2018-01-05 14:00:00 14 2 Nordeste 6 Nordeste 0 -- -- 55
2018-01-05 13:00:00 11.2 2 Sudeste 4 Este 0 -- -- 63
2018-01-05 12:00:00 5.1 0 Calma 6 Sur 0 -- -- 93
2018-01-05 11:00:00 2.5 3 Este 8 Norte 0 -- -- 97
2018-01-05 10:00:00 2 0 Calma 8 Sudoeste 0 -- -- 95
2018-01-05 09:00:00 2 4 Sudoeste 9 Oeste 0 -- -- 96
2018-01-05 08:00:00 1.6 4 Sur 8 Noroeste 0 -- -- 96
2018-01-05 07:00:00 2.1 0 Calma 19 Sudoeste 0 -- -- 91
2018-01-05 06:00:00 3.3 12 Sur 24 Sudoeste 0 -- -- 88
2018-01-05 05:00:00 2.8 6 Sudoeste 15 Sur 0 -- -- 90
2018-01-05 04:00:00 1.9 3 Sudoeste 8 Sudoeste 0 -- -- 93
2018-01-05 03:00:00 2.9 2 Sur 18 Sudoeste 0 -- -- 89
2018-01-05 02:00:00 4.2 12 Sur 18 Sudoeste 0 -- -- 86
2018-01-05 01:00:00 4.5 10 Sur 19 Sudoeste 0 -- -- 87
2018-01-05 00:00:00 5.1 10 Sudoeste 27 Sudoeste 0 -- -- 88
2018-01-04 23:00:00 6.4 18 Sudoeste 29 Sudoeste 0 -- -- 84
2018-01-04 22:00:00 5.8 15 Sudoeste 25 Sudoeste 0 -- -- 90
2018-01-04 21:00:00 5.9 8 Sudoeste 17 Sudoeste 0 -- -- 93
2018-01-04 20:00:00 7 14 Sudoeste 23 Sudoeste 0 -- -- 90
2018-01-04 19:00:00 7.5 12 Sudoeste 19 Sudoeste 0 -- -- 91
2018-01-04 18:00:00 7.4 2 Sur 8 Sudoeste 0 -- -- 91
2018-01-04 17:00:00 9.9 3 Sur 15 Nordeste 0 -- -- 84
2018-01-04 16:00:00 12.4 8 Nordeste 20 Norte 0 -- -- 72
2018-01-04 15:00:00 13.3 11 Norte 22 Nordeste 0 -- -- 68
2018-01-04 14:00:00 13.9 10 Nordeste 22 Norte 0 -- -- 73
2018-01-04 13:00:00 14.3 4 Este 8 Nordeste 0 -- -- 69
2018-01-04 12:00:00 10.9 0 Calma 5 Nordeste 0 -- -- 84
2018-01-04 11:00:00 9.3 2 Sur 5 Sur 0 -- -- 86
2018-01-04 10:00:00 8.2 0 Calma 10 Sudoeste 0 -- -- 91
2018-01-04 09:00:00 7 0 Calma 9 Sudoeste 0 -- -- 95
2018-01-04 08:00:00 6.8 5 Sur 8 Sur 0 -- -- 95
2018-01-04 07:00:00 6.2 3 Sudoeste 12 Sur 0 -- -- 97
2018-01-04 06:00:00 6.5 8 Sudoeste 15 Sudoeste 0 -- -- 97
2018-01-04 05:00:00 6.7 4 Sudoeste 9 Sudeste 0 -- -- 96
2018-01-04 04:00:00 6.8 2 Nordeste 6 Sudeste 0 -- -- 96
2018-01-04 03:00:00 6.8 3 Sudoeste 8 Sudoeste 0 -- -- 96
2018-01-04 02:00:00 6.3 3 Este 8 Norte 0 -- -- 97
2018-01-04 01:00:00 6.5 2 Sur 9 Sur 0 -- -- 95
2018-01-04 00:00:00 6.9 4 Este 12 Sudoeste 0 -- -- 96
2018-01-03 23:00:00 7.5 2 Sudeste 10 Sudoeste 0 -- -- 95
2018-01-03 22:00:00 7.6 8 Sudoeste 13 Sudoeste 0 -- -- 93
2018-01-03 21:00:00 7.8 9 Sudoeste 14 Sudoeste 0 -- -- 93
2018-01-03 20:00:00 7.8 4 Sudoeste 7 Sudoeste 0 -- -- 94
2018-01-03 19:00:00 9.6 4 Sudeste 27 Norte 0 -- -- 88
2018-01-03 18:00:00 11.6 6 Nordeste 26 Norte 0 -- -- 74
2018-01-03 17:00:00 13 5 Norte 32 Nordeste 0 -- -- 63
2018-01-03 16:00:00 12.9 5 Sur 14 Nordeste 0 -- -- 76
2018-01-03 15:00:00 14.6 6 Nordeste 30 Norte 0 -- -- 62
2018-01-03 14:00:00 15.8 18 Norte 33 Norte 0 -- -- 61
2018-01-03 13:00:00 15.3 3 Sur 15 Nordeste 0 -- -- 69
2018-01-03 12:00:00 11.5 3 Sur 9 Sur 0 -- -- 91
2018-01-03 11:00:00 7.8 4 Este 12 Nordeste 0 -- -- 98
2018-01-03 10:00:00 8.4 5 Oeste 23 Sudoeste 0.2 -- -- 95
2018-01-03 09:00:00 8.3 13 Sudoeste 26 Sudoeste 0 -- -- 92
2018-01-03 08:00:00 7.9 9 Sudoeste 28 Sudoeste 0 -- -- 93
2018-01-03 07:00:00 7.4 21 Sudoeste 30 Sudoeste 0.2 -- -- 95
2018-01-03 06:00:00 5.8 10 Sudoeste 21 Sudoeste 0 -- -- 100
2018-01-03 05:00:00 6.8 4 Sudoeste 18 Sudoeste 0 -- -- 96
2018-01-03 04:00:00 6.8 7 Sudoeste 17 Sudoeste 0 -- -- 96
2018-01-03 03:00:00 7.2 8 Sudoeste 23 Sudoeste 0 -- -- 96
2018-01-03 02:00:00 7.4 15 Sudoeste 27 Sudoeste 0 -- -- 97
2018-01-03 01:00:00 7.6 9 Sudoeste 24 Sudoeste 0 -- -- 98
2018-01-03 00:00:00 7.4 4 Sudoeste 14 Sudoeste 0 -- -- 99
2018-01-02 23:00:00 7.2 2 Sur 8 Sudoeste 0.2 -- -- 100
2018-01-02 22:00:00 7.2 3 Sudoeste 11 Sudoeste 1.4 -- -- 100
2018-01-02 21:00:00 7.2 5 Sudoeste 15 Sudoeste 2 -- -- 100
2018-01-02 20:00:00 7.1 4 Sur 9 Oeste 1.6 -- -- 100
2018-01-02 19:00:00 7.1 2 Sudeste 7 Sur 0.2 -- -- 100
2018-01-02 18:00:00 7.5 0 Calma 7 Sudoeste 0.2 -- -- 99
2018-01-02 17:00:00 7.7 0 Calma 5 Oeste 0.4 -- -- 99
2018-01-02 16:00:00 7.6 2 Nordeste 6 Este 1.8 -- -- 99
2018-01-02 15:00:00 7.2 4 Nordeste 14 Sudoeste 2.2 -- -- 98
2018-01-02 14:00:00 6.4 2 Este 27 Sudoeste 4 -- -- 98
2018-01-02 13:00:00 5.7 8 Sudoeste 16 Sudoeste 3.8 -- -- 98
2018-01-02 12:00:00 5.3 14 Sudoeste 19 Sudoeste 2.2 -- -- 98
2018-01-02 11:00:00 4.9 3 Nordeste 22 Sudoeste 1 -- -- 95
2018-01-02 10:00:00 4.6 11 Sudoeste 25 Sudoeste 0.2 -- -- 92
2018-01-02 09:00:00 3.8 16 Sudoeste 23 Sudoeste 0 -- -- 94
2018-01-02 08:00:00 3.5 9 Sudoeste 15 Sur 0 -- -- 94
2018-01-02 07:00:00 3.4 5 Sur 18 Sudoeste 0 -- -- 94
2018-01-02 06:00:00 3.7 10 Sudoeste 22 Sudoeste 0 -- -- 93
2018-01-02 05:00:00 3.7 11 Sudoeste 18 Sudoeste 0.4 -- -- 95
2018-01-02 04:00:00 3.6 9 Sudoeste 17 Sudoeste 0 -- -- 95
2018-01-02 03:00:00 3.6 5 Sur 16 Sudoeste 0.2 -- -- 93
2018-01-02 02:00:00 4.2 4 Noroeste 18 Sudoeste 0 -- -- 82
2018-01-02 01:00:00 4.4 3 Sudoeste 18 Sudoeste 0 -- -- 78
2018-01-02 00:00:00 4.8 12 Sudoeste 19 Oeste 0 -- -- 74
2018-01-01 23:00:00 7.3 5 Noroeste 44 Norte 0 -- -- 63
2018-01-01 22:00:00 9.3 22 Nordeste 53 Nordeste 0 -- -- 46
2018-01-01 21:00:00 9.2 27 Nordeste 67 Nordeste 0.2 -- -- 50
2018-01-01 20:00:00 7.1 14 Nordeste 32 Norte 0.8 -- -- 67
2018-01-01 19:00:00 4.7 3 Sudoeste 14 Sudoeste 3.4 -- -- 95
2018-01-01 18:00:00 6 9 Sudoeste 16 Sur 1.8 -- -- 92
2018-01-01 17:00:00 9.2 10 Sur 24 Sur 0 -- -- 55
2018-01-01 16:00:00 8.4 8 Sur 15 Sudoeste 0 -- -- 67
2018-01-01 15:00:00 10.6 5 Sudoeste 27 Sudoeste 0 -- -- 52
2018-01-01 14:00:00 10.7 14 Sudoeste 33 Sudoeste 0 -- -- 46
2018-01-01 13:00:00 8.5 20 Sur 41 Sudoeste 0 -- -- 52
2018-01-01 12:00:00 5.6 10 Sudoeste 28 Oeste 0 -- -- 69
2018-01-01 11:00:00 2.3 6 Este 17 Sudoeste 0 -- -- 90
2018-01-01 10:00:00 1.4 2 Sudoeste 20 Oeste 0 -- -- 94
2018-01-01 09:00:00 1 14 Sudoeste 22 Sudoeste 0 -- -- 97
2018-01-01 08:00:00 1 8 Sudoeste 17 Sudoeste 0 -- -- 97
2018-01-01 07:00:00 2.2 11 Sudoeste 17 Sudoeste 0 -- -- 98
2018-01-01 06:00:00 2.6 2 Nordeste 8 Nordeste 0.2 -- -- 97
2018-01-01 05:00:00 2.9 3 Este 8 Oeste 0.6 -- -- 94
2018-01-01 04:00:00 2.9 3 Sudeste 8 Oeste 0 -- -- 94
2018-01-01 03:00:00 2.5 3 Nordeste 11 Sudoeste 0 -- -- 94
2018-01-01 02:00:00 2.3 5 Sur 8 Sudeste 0 -- -- 93
2018-01-01 01:00:00 3.2 4 Sur 9 Sudeste 0 -- -- 94
2018-01-01 00:00:00 4 0 Calma 12 Nordeste 0 -- -- 96
2017-12-31 23:00:00 4.2 3 Sur 6 Oeste 0.2 -- -- 97
2017-12-31 22:00:00 4.6 2 Sudoeste 9 Nordeste 0.6 -- -- 94
2017-12-31 21:00:00 5.5 8 Nordeste 31 Noroeste 0.4 -- -- 85
2017-12-31 20:00:00 7.8 16 Norte 32 Nordeste 0 -- -- 78
2017-12-31 19:00:00 8.6 10 Norte 21 Nordeste 0 -- -- 66
2017-12-31 18:00:00 9.1 4 Norte 19 Nordeste 0 -- -- 60
2017-12-31 17:00:00 11.7 6 Nordeste 19 Nordeste 0 -- -- 50
2017-12-31 16:00:00 13 8 Sur 29 Sur 0 -- -- 41
2017-12-31 15:00:00 12.4 21 Sudoeste 32 Sudoeste 0 -- -- 43
2017-12-31 14:00:00 17.4 15 Sur 33 Sur 0 -- -- 34
2017-12-31 13:00:00 15.9 17 Sur 32 Sudoeste 0 -- -- 33
2017-12-31 12:00:00 14.1 20 Sur 34 Sur 0 -- -- 32
2017-12-31 11:00:00 6.4 3 Nordeste 13 Norte 0 -- -- 69
2017-12-31 10:00:00 2.6 4 Nordeste 8 Sudoeste 0 -- -- 86
2017-12-31 09:00:00 1.2 4 Norte 12 Oeste 0 -- -- 89
2017-12-31 08:00:00 0 2 Oeste 11 Noroeste 0 -- -- 93
2017-12-31 07:00:00 -0.5 3 Sur 12 Sur 0 -- -- 94
2017-12-31 06:00:00 -0.8 4 Sudoeste 12 Sudoeste 0 -- -- 95
2017-12-31 05:00:00 -0.1 4 Sur 13 Sur 0 -- -- 90
2017-12-31 04:00:00 1.1 7 Sur 17 Sur 0 -- -- 86
2017-12-31 03:00:00 0.7 6 Sur 15 Sur 0 -- -- 89
2017-12-31 02:00:00 0.9 9 Sur 18 Sudoeste 0 -- -- 90
2017-12-31 01:00:00 1.1 8 Sur 19 Sudoeste 0 -- -- 92